createdAt,value
2023-02-17T00:04:55.477Z,9.23
2023-02-17T00:09:58.385Z,9.93
2023-02-17T00:15:00.014Z,8.57
2023-02-17T00:20:01.692Z,10.45
2023-02-17T00:25:03.771Z,10.35
2023-02-17T00:30:06.311Z,10.57
2023-02-17T00:35:08.338Z,11.20
2023-02-17T00:40:10.371Z,10.77
2023-02-17T00:45:12.184Z,10.60
2023-02-17T00:50:13.873Z,10.57
2023-02-17T00:55:15.605Z,11.70
2023-02-17T01:00:17.793Z,11.02
2023-02-17T01:05:19.862Z,10.30
2023-02-17T01:10:21.671Z,11.10
2023-02-17T01:15:23.399Z,11.48
2023-02-17T01:20:25.121Z,10.10
2023-02-17T01:25:26.788Z,9.20
2023-02-17T01:30:30.833Z,9.05
2023-02-17T01:35:34.193Z,9.18
2023-02-17T01:40:36.012Z,8.63
2023-02-17T01:45:46.112Z,7.90
2023-02-17T01:50:53.528Z,8.45
2023-02-17T01:55:56.995Z,8.55
2023-02-17T02:01:03.308Z,8.82
2023-02-17T02:06:11.997Z,8.33
2023-02-17T02:11:13.713Z,7.85
2023-02-17T02:16:15.417Z,7.53
2023-02-17T02:21:35.053Z,8.40
2023-02-17T02:26:42.401Z,6.85
2023-02-17T02:32:21.304Z,7.15
2023-02-17T02:37:35.635Z,7.13
2023-02-17T02:42:39.096Z,6.03
2023-02-17T02:47:49.440Z,6.72
2023-02-17T02:53:45.958Z,8.43
2023-02-17T02:58:59.653Z,9.45
2023-02-17T03:04:18.011Z,7.95
2023-02-17T03:09:27.357Z,9.13
2023-02-17T03:14:36.316Z,9.48
2023-02-17T03:19:38.359Z,9.20
2023-02-17T03:24:40.116Z,9.05
2023-02-17T03:29:43.462Z,8.50
2023-02-17T03:34:45.996Z,8.48
2023-02-17T03:39:47.770Z,8.63
2023-02-17T03:44:49.469Z,8.50
2023-02-17T03:49:51.875Z,8.07
2023-02-17T03:54:53.601Z,8.70
2023-02-17T03:59:55.225Z,8.07
2023-02-17T04:04:56.875Z,8.80
2023-02-17T04:09:58.530Z,7.93
2023-02-17T04:15:00.231Z,8.27
2023-02-17T04:20:01.957Z,10.43
2023-02-17T04:25:03.700Z,10.77
2023-02-17T04:30:07.207Z,12.23
2023-02-17T04:35:08.902Z,10.65
2023-02-17T04:40:11.208Z,11.48
2023-02-17T04:45:13.748Z,11.88
2023-02-17T04:50:15.464Z,12.68
2023-02-17T04:55:17.311Z,11.05
2023-02-17T05:00:19.334Z,10.75
2023-02-17T05:05:21.212Z,10.05
2023-02-17T05:10:24.082Z,10.40
2023-02-17T05:15:26.056Z,10.68
2023-02-17T05:20:27.941Z,11.45
2023-02-17T05:25:29.835Z,11.40
2023-02-17T05:30:31.577Z,9.98
2023-02-17T05:35:35.290Z,9.70
2023-02-17T05:40:36.942Z,10.30
2023-02-17T05:45:38.561Z,9.90
2023-02-17T05:50:40.296Z,9.65
2023-02-17T05:55:41.950Z,10.60
2023-02-17T06:00:45.248Z,8.38
2023-02-17T06:05:47.062Z,8.98
2023-02-17T06:10:48.684Z,9.55
2023-02-17T06:15:50.410Z,8.48
2023-02-17T06:20:55.288Z,9.07
2023-02-17T06:25:56.961Z,8.15
2023-02-17T06:30:58.589Z,7.78
2023-02-17T06:36:00.298Z,8.32
2023-02-17T06:41:02.184Z,7.93
2023-02-17T06:46:04.029Z,7.93
2023-02-17T06:51:05.945Z,9.27
2023-02-17T06:56:07.970Z,7.68
2023-02-17T07:01:17.984Z,7.75
2023-02-17T07:06:19.818Z,7.82
2023-02-17T07:11:21.666Z,8.43
2023-02-17T07:16:23.501Z,8.13
2023-02-17T07:21:25.445Z,7.38
2023-02-17T07:26:27.145Z,7.90
2023-02-17T07:31:28.896Z,7.72
2023-02-17T07:36:30.804Z,7.93
2023-02-17T07:41:33.607Z,6.90
2023-02-17T07:46:43.224Z,7.78
2023-02-17T07:51:45.236Z,7.70
2023-02-17T07:56:47.364Z,8.00
2023-02-17T08:01:49.853Z,7.97
2023-02-17T08:06:51.670Z,7.28
2023-02-17T08:12:11.882Z,7.35
2023-02-17T08:17:14.034Z,8.27
2023-02-17T08:22:16.868Z,8.57
2023-02-17T08:27:19.418Z,7.88
2023-02-17T08:32:21.097Z,7.72
2023-02-17T08:37:22.811Z,8.40
2023-02-17T08:42:26.622Z,7.43
2023-02-17T08:47:28.299Z,7.50
2023-02-17T08:52:30.493Z,7.50
2023-02-17T08:57:32.104Z,6.13
2023-02-17T09:02:33.897Z,6.20
2023-02-17T09:07:35.494Z,5.65
2023-02-17T09:12:37.277Z,5.93
2023-02-17T09:24:16.731Z,5.47
2023-02-17T09:41:51.892Z,3.22
2023-02-17T09:47:07.252Z,3.42
2023-02-17T09:52:33.803Z,3.33
2023-02-17T09:57:49.464Z,3.22
2023-02-17T10:03:04.739Z,3.22
2023-02-17T10:08:13.435Z,2.90
2023-02-17T10:13:20.209Z,2.78
2023-02-17T10:18:34.865Z,3.40
2023-02-17T10:23:36.668Z,3.00
2023-02-17T10:28:49.172Z,3.28
2023-02-17T10:33:57.251Z,3.08
2023-02-17T10:39:21.922Z,3.00
2023-02-17T10:44:25.122Z,2.95
2023-02-17T10:49:34.300Z,2.33
2023-02-17T10:54:39.615Z,2.55
2023-02-17T10:59:43.899Z,2.40
2023-02-17T11:04:49.038Z,2.55
2023-02-17T11:09:55.172Z,2.40
2023-02-17T11:14:57.607Z,2.23
2023-02-17T11:20:09.294Z,2.35
2023-02-17T11:25:25.287Z,2.28
2023-02-17T11:30:29.419Z,2.40
2023-02-17T11:35:36.786Z,2.00
2023-02-17T11:40:38.641Z,2.47
2023-02-17T11:45:50.179Z,2.30
2023-02-17T11:51:12.615Z,1.88
2023-02-17T11:56:18.489Z,1.60
2023-02-17T12:01:36.589Z,1.95
2023-02-17T12:06:40.911Z,1.90
2023-02-17T12:12:03.924Z,1.80
2023-02-17T12:17:49.024Z,2.22
2023-02-17T12:23:06.682Z,2.30
2023-02-17T12:28:36.192Z,2.00
2023-02-17T12:34:05.919Z,1.77
2023-02-17T12:39:18.352Z,1.98
2023-02-17T12:44:33.606Z,1.75
2023-02-17T12:49:41.543Z,1.60
2023-02-17T12:55:38.916Z,1.83
2023-02-17T13:00:52.328Z,1.60
2023-02-17T13:06:02.588Z,2.00
2023-02-17T13:11:25.186Z,1.88
2023-02-17T13:16:28.548Z,1.50
2023-02-17T13:21:33.438Z,1.88
2023-02-17T13:26:37.982Z,1.40
2023-02-17T13:32:02.259Z,1.20
2023-02-17T13:37:44.766Z,1.50
2023-02-17T13:42:52.796Z,1.55
2023-02-17T13:47:57.373Z,1.50
2023-02-17T13:53:00.275Z,1.15
2023-02-17T13:58:02.036Z,0.95
2023-02-17T14:03:23.899Z,1.23
2023-02-17T14:08:43.512Z,0.90
2023-02-17T14:13:51.167Z,0.90
2023-02-17T14:19:02.693Z,1.10
2023-02-17T14:24:05.457Z,0.90
2023-02-17T14:29:09.900Z,4.65
2023-02-17T14:34:20.848Z,1.52
2023-02-17T14:39:22.792Z,0.80
2023-02-17T14:44:24.417Z,0.90
2023-02-17T14:49:26.389Z,0.80
2023-02-17T14:54:30.358Z,0.80
2023-02-17T14:59:32.312Z,0.88
2023-02-17T15:04:34.149Z,0.98
2023-02-17T15:09:35.848Z,0.90
2023-02-17T15:14:37.556Z,0.90
2023-02-17T15:19:39.642Z,0.95
2023-02-17T15:24:41.466Z,1.15
2023-02-17T15:29:43.663Z,1.10
2023-02-17T15:34:46.168Z,1.00
2023-02-17T15:39:47.800Z,1.00
2023-02-17T15:44:50.556Z,1.13
2023-02-17T15:49:52.285Z,0.95
2023-02-17T15:54:54.269Z,1.20
2023-02-17T15:59:56.263Z,1.08
2023-02-17T16:04:57.909Z,0.93
2023-02-17T16:09:59.559Z,1.15
2023-02-17T16:15:02.241Z,1.20
2023-02-17T16:20:09.353Z,1.20
2023-02-17T16:25:12.431Z,1.23
2023-02-17T16:30:22.566Z,1.10
2023-02-17T16:35:27.224Z,1.13
2023-02-17T16:40:31.715Z,1.10
2023-02-17T16:45:34.109Z,1.30
2023-02-17T16:50:36.280Z,1.98
2023-02-17T16:55:38.683Z,1.02
2023-02-17T17:00:40.621Z,3.22
2023-02-17T17:05:43.050Z,1.48
2023-02-17T17:10:46.091Z,1.92
2023-02-17T17:15:48.083Z,1.60
2023-02-17T17:20:50.176Z,8.95
2023-02-17T17:25:52.067Z,3.80
2023-02-17T17:30:54.113Z,1.02
2023-02-17T17:35:59.556Z,2.15
2023-02-17T17:41:12.394Z,4.40
2023-02-17T17:46:21.538Z,4.78
2023-02-17T17:51:26.975Z,3.03
2023-02-17T17:56:36.523Z,1.40
2023-02-17T18:01:38.537Z,1.45
2023-02-17T18:06:44.044Z,2.75
2023-02-17T18:11:46.608Z,2.95
2023-02-17T18:16:49.192Z,4.68
2023-02-17T18:21:50.963Z,1.77
2023-02-17T18:26:52.611Z,14.13
2023-02-17T18:31:54.518Z,14.52
2023-02-17T18:36:56.242Z,9.63
2023-02-17T18:41:57.916Z,5.28
2023-02-17T18:46:59.577Z,5.43
2023-02-17T18:52:01.247Z,3.72
2023-02-17T18:57:02.969Z,2.38
2023-02-17T19:02:06.302Z,2.85
2023-02-17T19:07:08.432Z,1.83
2023-02-17T19:12:13.675Z,1.63
2023-02-17T19:17:18.396Z,1.83
2023-02-17T19:22:20.442Z,1.80
2023-02-17T19:27:22.255Z,2.45
2023-02-17T19:32:24.291Z,2.10
2023-02-17T19:37:26.018Z,1.80
2023-02-17T19:42:28.206Z,1.50
2023-02-17T19:47:30.894Z,1.80
2023-02-17T19:52:32.808Z,2.17
2023-02-17T19:57:34.554Z,2.03
2023-02-17T20:02:36.791Z,2.95
2023-02-17T20:07:38.628Z,2.58
2023-02-17T20:12:43.295Z,5.10
2023-02-17T20:17:45.316Z,5.80
2023-02-17T20:22:47.022Z,9.35
2023-02-17T20:27:48.870Z,4.47
2023-02-17T20:32:50.641Z,5.78
2023-02-17T20:37:52.412Z,4.85
2023-02-17T20:42:54.188Z,9.20
2023-02-17T20:47:55.842Z,3.38
2023-02-17T20:52:57.775Z,4.05
2023-02-17T20:58:00.253Z,3.30
2023-02-17T21:03:02.051Z,2.97
2023-02-17T21:08:04.532Z,3.25
2023-02-17T21:13:06.297Z,3.17
2023-02-17T21:18:08.975Z,2.92
2023-02-17T21:23:10.647Z,2.88
2023-02-17T21:28:12.295Z,3.28
2023-02-17T21:33:14.057Z,3.65
2023-02-17T21:38:16.831Z,3.85
2023-02-17T21:43:38.051Z,3.38
2023-02-17T21:48:39.895Z,3.70
2023-02-17T21:53:41.713Z,3.90
2023-02-17T21:58:48.246Z,3.08
2023-02-17T22:03:50.197Z,3.00
2023-02-17T22:08:52.219Z,2.42
2023-02-17T22:13:58.630Z,2.65
2023-02-17T22:19:01.279Z,1.50
2023-02-17T22:24:03.016Z,1.42
2023-02-17T22:29:04.965Z,1.42
2023-02-17T22:34:09.998Z,1.50
2023-02-17T22:39:11.929Z,1.77
2023-02-17T22:44:13.653Z,2.20
2023-02-17T22:49:15.491Z,1.92
2023-02-17T22:54:17.202Z,1.90
2023-02-17T22:59:18.864Z,1.90
2023-02-17T23:04:20.764Z,2.30
2023-02-17T23:09:22.656Z,1.70
2023-02-17T23:14:35.937Z,1.40
2023-02-17T23:19:39.035Z,1.63
2023-02-17T23:24:40.730Z,2.10
2023-02-17T23:29:42.538Z,1.42
2023-02-17T23:34:44.568Z,1.50
2023-02-17T23:39:46.252Z,1.40
2023-02-17T23:44:47.958Z,1.55
2023-02-17T23:49:49.672Z,1.52
2023-02-17T23:54:51.340Z,2.03
2023-02-17T23:59:53.371Z,2.45
